Pride — ZDFD7 — position and weather

sailwx.info

Track history (hours):
 
Tides and Currents Weather Stations Pressure Air Temp Water Temp Dewpoint Dewpoint Depression Visibility Wind Speed Wind Dir Waves Ship Positions

Pride

Last reported at 2015-Feb-21 20:33 UTC. Time now 2015-Feb-28 00:49 UTC.
Position N 43°19' W 002°60'.

Length 88 m; draft 3.5 m.

Type: Ship. MMSI: 236166000.

Date/timePositionNaut miles runAvg speedWind from/ knotsBaromVisibWave heightAir tempDewpointWater temp
2015-Feb-21 20:33N 43°19' W 002°60'0 0.0
2015-Feb-21 19:33N 43°19' W 002°60'0 0.0
2015-Feb-21 18:31N 43°19' W 002°60'0 0.0
2015-Feb-21 17:31N 43°19' W 002°60'0 0.0
2015-Feb-21 16:33N 43°19' W 002°60'0 0.0
2015-Feb-21 15:30N 43°19' W 002°60'0 0.0
2015-Feb-21 14:31N 43°19' W 002°60'0 0.0
2015-Feb-21 13:32N 43°19' W 002°60'  
2015-Feb-17 20:32N 43°22' W 003°10'  
2015-Feb-15 12:12N 50°19' W 004°11'4 5.4
2015-Feb-15 11:33N 50°22' W 004°08'0 0.0
2015-Feb-15 10:34N 50°22' W 004°08'0 0.0
2015-Feb-15 09:33N 50°22' W 004°08'0 0.0
2015-Feb-15 08:32N 50°22' W 004°08'4 3.6
2015-Feb-15 07:33N 50°19' W 004°10'171 7.4
2015-Feb-14 08:20N 50°36' E 000°17'7 8.7
2015-Feb-14 07:32N 50°38' E 000°27'8 8.0
2015-Feb-14 06:33N 50°41' E 000°39'8 7.5
2015-Feb-14 05:33N 50°45' E 000°48'24 7.6
2015-Feb-14 02:26N 50°60' E 001°18'8 9.2
2015-Feb-14 01:33N 51°05' E 001°28'10 9.7
2015-Feb-14 00:33N 51°11' E 001°39'9 9.2
2015-Feb-13 23:33N 51°18' E 001°48'9 8.7
2015-Feb-13 22:33N 51°26' E 001°54'8 8.1
2015-Feb-13 21:33N 51°34' E 001°58'8 7.9
2015-Feb-13 20:33N 51°41' E 002°03'8 7.2
2015-Feb-13 19:26N 51°49' E 002°09'10 7.8
2015-Feb-13 18:11N 51°58' E 002°10'5 8.3
2015-Feb-13 17:33N 52°03' E 002°08'9 8.7
2015-Feb-13 16:33N 52°12' E 002°05'9 9.2
2015-Feb-13 15:33N 52°21' E 002°01'10 9.5
2015-Feb-13 14:33N 52°30' E 001°58'10 9.9
2015-Feb-13 13:33N 52°40' E 001°55'9 9.4
2015-Feb-13 12:34N 52°48' E 001°49'10 9.7
2015-Feb-13 11:33N 52°55' E 001°37'9 9.2
2015-Feb-13 10:33N 53°02' E 001°27'9 8.8
2015-Feb-13 09:33N 53°09' E 001°20'43 8.3
2015-Feb-13 04:25N 53°45' E 000°41'8 9.0
2015-Feb-13 03:34N 53°51' E 000°32'9 8.7
2015-Feb-13 02:33N 53°58' E 000°23'9 9.3
2015-Feb-13 01:33N 54°05' E 000°13'10 9.6
2015-Feb-13 00:33N 54°13' E 000°04'10 9.8
2015-Feb-12 23:33N 54°21' W 000°06'1010.4
2015-Feb-12 22:33N 54°30' W 000°15'1010.5
2015-Feb-12 21:33N 54°39' W 000°25'1110.4
2015-Feb-12 20:33N 54°48' W 000°35'1010.4
2015-Feb-12 19:33N 54°56' W 000°44'70 9.7
2015-Feb-12 12:16N 55°53' W 001°58'7 9.8
2015-Feb-12 11:32N 55°57' W 002°09'1010.3
2015-Feb-12 10:33N 56°02' W 002°25'1110.5
2015-Feb-12 09:33N 56°05' W 002°42'1110.6
2015-Feb-12 08:33N 56°03' W 003°01'1010.1
2015-Feb-12 07:33N 56°01' W 003°19'3 2.8
2015-Feb-12 06:33N 56°01' W 003°24'0 0.0
2015-Feb-12 05:29N 56°01' W 003°24'0 0.0
2015-Feb-12 04:32N 56°01' W 003°24'0 0.0
2015-Feb-12 03:32N 56°01' W 003°24'0 0.0
2015-Feb-12 02:22N 56°01' W 003°24'0 0.0
2015-Feb-12 01:24N 56°01' W 003°24'0 0.0
2015-Feb-12 00:27N 56°01' W 003°24'0 0.0
2015-Feb-11 23:32N 56°01' W 003°24'  
Track history (hours):
 
Tides and Currents Weather Stations Pressure Air Temp Water Temp Dewpoint Dewpoint Depression Visibility Wind Speed Wind Dir Waves Ship Positions

Pride

Last reported at 2015-Feb-21 20:33 UTC. Time now 2015-Feb-28 00:49 UTC.
Position N 43°19' W 002°60'.

Length 88 m; draft 3.5 m.

Type: Ship. MMSI: 236166000.

Date/timePositionNaut miles runAvg speedWind from/ knotsBaromVisibWave heightAir tempDewpointWater temp
2015-Feb-21 20:33N 43°19' W 002°60'0 0.0
2015-Feb-21 19:33N 43°19' W 002°60'0 0.0
2015-Feb-21 18:31N 43°19' W 002°60'0 0.0
2015-Feb-21 17:31N 43°19' W 002°60'0 0.0
2015-Feb-21 16:33N 43°19' W 002°60'0 0.0
2015-Feb-21 15:30N 43°19' W 002°60'0 0.0
2015-Feb-21 14:31N 43°19' W 002°60'0 0.0
2015-Feb-21 13:32N 43°19' W 002°60'  
2015-Feb-17 20:32N 43°22' W 003°10'  
2015-Feb-15 12:12N 50°19' W 004°11'4 5.4
2015-Feb-15 11:33N 50°22' W 004°08'0 0.0
2015-Feb-15 10:34N 50°22' W 004°08'0 0.0
2015-Feb-15 09:33N 50°22' W 004°08'0 0.0
2015-Feb-15 08:32N 50°22' W 004°08'4 3.6
2015-Feb-15 07:33N 50°19' W 004°10'171 7.4
2015-Feb-14 08:20N 50°36' E 000°17'7 8.7
2015-Feb-14 07:32N 50°38' E 000°27'8 8.0
2015-Feb-14 06:33N 50°41' E 000°39'8 7.5
2015-Feb-14 05:33N 50°45' E 000°48'24 7.6
2015-Feb-14 02:26N 50°60' E 001°18'8 9.2
2015-Feb-14 01:33N 51°05' E 001°28'10 9.7
2015-Feb-14 00:33N 51°11' E 001°39'9 9.2
2015-Feb-13 23:33N 51°18' E 001°48'9 8.7
2015-Feb-13 22:33N 51°26' E 001°54'8 8.1
2015-Feb-13 21:33N 51°34' E 001°58'8 7.9
2015-Feb-13 20:33N 51°41' E 002°03'8 7.2
2015-Feb-13 19:26N 51°49' E 002°09'10 7.8
2015-Feb-13 18:11N 51°58' E 002°10'5 8.3
2015-Feb-13 17:33N 52°03' E 002°08'9 8.7
2015-Feb-13 16:33N 52°12' E 002°05'9 9.2
2015-Feb-13 15:33N 52°21' E 002°01'10 9.5
2015-Feb-13 14:33N 52°30' E 001°58'10 9.9
2015-Feb-13 13:33N 52°40' E 001°55'9 9.4
2015-Feb-13 12:34N 52°48' E 001°49'10 9.7
2015-Feb-13 11:33N 52°55' E 001°37'9 9.2
2015-Feb-13 10:33N 53°02' E 001°27'9 8.8
2015-Feb-13 09:33N 53°09' E 001°20'43 8.3
2015-Feb-13 04:25N 53°45' E 000°41'8 9.0
2015-Feb-13 03:34N 53°51' E 000°32'9 8.7
2015-Feb-13 02:33N 53°58' E 000°23'9 9.3
2015-Feb-13 01:33N 54°05' E 000°13'10 9.6
2015-Feb-13 00:33N 54°13' E 000°04'10 9.8
2015-Feb-12 23:33N 54°21' W 000°06'1010.4
2015-Feb-12 22:33N 54°30' W 000°15'1010.5
2015-Feb-12 21:33N 54°39' W 000°25'1110.4
2015-Feb-12 20:33N 54°48' W 000°35'1010.4
2015-Feb-12 19:33N 54°56' W 000°44'70 9.7
2015-Feb-12 12:16N 55°53' W 001°58'7 9.8
2015-Feb-12 11:32N 55°57' W 002°09'1010.3
2015-Feb-12 10:33N 56°02' W 002°25'1110.5
2015-Feb-12 09:33N 56°05' W 002°42'1110.6
2015-Feb-12 08:33N 56°03' W 003°01'1010.1
2015-Feb-12 07:33N 56°01' W 003°19'3 2.8
2015-Feb-12 06:33N 56°01' W 003°24'0 0.0
2015-Feb-12 05:29N 56°01' W 003°24'0 0.0
2015-Feb-12 04:32N 56°01' W 003°24'0 0.0
2015-Feb-12 03:32N 56°01' W 003°24'0 0.0
2015-Feb-12 02:22N 56°01' W 003°24'0 0.0
2015-Feb-12 01:24N 56°01' W 003°24'0 0.0
2015-Feb-12 00:27N 56°01' W 003°24'0 0.0
2015-Feb-11 23:32N 56°01' W 003°24'  

Dump ship's entire track history